Time;durP1;ratioP1;P1;durP2;ratioP2;P2;SDS_P1;SDS_P2;PMS_P1;PMS_P2;Temp;Humidity;BMP_temperature;BMP_pressure;BME280_temperature;BME280_humidity;BME280_pressure;Samples;Min_cycle;Max_cycle;Signal;HPM_P1;HPM_P2
2023/06/08 04:02:24;;;;;;;2.60;2.40;;;14.50;99.90;;;;;;5067490;23;20586;-74
2023/06/08 04:04:53;;;;;;;7.27;3.90;;;14.60;99.90;;;;;;4973918;28;20471;-74
2023/06/08 04:07:21;;;;;;;4.00;3.70;;;14.50;99.90;;;;;;4972767;28;20808;-74
2023/06/08 04:09:48;;;;;;;4.80;3.10;;;14.50;99.90;;;;;;4972566;28;20475;-74
2023/06/08 04:12:15;;;;;;;4.03;3.73;;;14.50;99.90;;;;;;4961502;28;20493;-74
2023/06/08 04:14:42;;;;;;;4.70;3.07;;;14.40;99.90;;;;;;4956776;28;20468;-75
2023/06/08 04:17:08;;;;;;;5.77;4.30;;;14.40;99.90;;;;;;4953182;28;20514;-75
2023/06/08 04:19:36;;;;;;;5.27;4.23;;;14.40;99.90;;;;;;4963201;28;20472;-75
2023/06/08 04:22:04;;;;;;;4.60;4.30;;;14.40;99.90;;;;;;4956536;28;20578;-75
2023/06/08 04:24:33;;;;;;;5.13;3.80;;;14.40;99.90;;;;;;4955423;28;20483;-76
2023/06/08 04:27:00;;;;;;;4.87;4.33;;;14.40;99.90;;;;;;4964391;28;20496;-75
2023/06/08 04:29:27;;;;;;;5.43;5.03;;;14.40;99.90;;;;;;4968265;28;20476;-75
2023/06/08 04:31:54;;;;;;;4.77;2.93;;;14.40;99.90;;;;;;4953622;28;20532;-75
2023/06/08 04:34:21;;;;;;;5.70;5.10;;;14.30;99.90;;;;;;4953303;28;20482;-75
2023/06/08 04:36:49;;;;;;;4.53;3.13;;;14.30;99.90;;;;;;4963746;28;20492;-75
2023/06/08 04:39:16;;;;;;;6.10;3.80;;;14.30;99.90;;;;;;4946994;28;20469;-75
2023/06/08 04:41:44;;;;;;;8.23;4.07;;;14.30;99.90;;;;;;4950702;28;20533;-75
2023/06/08 04:44:13;;;;;;;3.90;3.47;;;14.30;99.90;;;;;;4952667;28;20832;-75
2023/06/08 04:46:42;;;;;;;7.83;4.67;;;14.30;99.90;;;;;;4953220;28;20476;-75
2023/06/08 04:49:09;;;;;;;5.00;4.50;;;14.50;99.90;;;;;;4956318;28;20898;-75
2023/06/08 04:51:40;;;;;;;5.10;2.80;;;14.90;99.90;;;;;;4957884;28;20981;-75
2023/06/08 04:54:12;;;;;;;5.83;3.60;;;15.50;99.90;;;;;;4947668;28;20564;-76
2023/06/08 04:56:41;;;;;;;7.13;4.60;;;16.10;99.90;;;;;;4952223;28;20481;-75
2023/06/08 04:59:08;;;;;;;6.13;3.80;;;16.60;99.90;;;;;;4951921;28;20504;-75
2023/06/08 05:01:35;;;;;;;4.00;3.63;;;17.20;99.90;;;;;;4957099;28;20497;-75
2023/06/08 05:04:01;;;;;;;3.60;3.17;;;17.40;99.90;;;;;;4953108;28;20465;-75
2023/06/08 05:06:28;;;;;;;4.10;3.80;;;17.80;99.90;;;;;;4973023;28;20460;-75
2023/06/08 05:08:55;;;;;;;4.93;4.00;;;18.20;99.90;;;;;;4962840;28;20464;-75
2023/06/08 05:11:23;;;;;;;3.40;2.83;;;18.60;99.90;;;;;;4949423;28;20821;-75
2023/06/08 05:13:50;;;;;;;3.23;2.93;;;18.50;99.90;;;;;;4949556;28;20885;-76
2023/06/08 05:16:16;;;;;;;5.17;2.87;;;18.60;99.90;;;;;;4963375;28;20982;-76
2023/06/08 05:18:43;;;;;;;6.13;3.50;;;18.80;99.90;;;;;;4951700;28;20470;-76
2023/06/08 05:21:10;;;;;;;3.23;2.80;;;19.20;99.90;;;;;;4953363;28;20498;-76
2023/06/08 05:23:37;;;;;;;3.53;3.23;;;19.50;99.90;;;;;;4948846;28;20498;-76
2023/06/08 05:26:03;;;;;;;3.37;3.07;;;19.40;99.90;;;;;;4952809;28;20469;-76
2023/06/08 05:28:31;;;;;;;3.43;3.23;;;19.80;99.90;;;;;;4941482;28;20468;-76
2023/06/08 05:30:58;;;;;;;4.17;3.90;;;19.90;99.90;;;;;;4957007;28;20486;-76
2023/06/08 05:33:25;;;;;;;5.47;2.53;;;20.10;99.90;;;;;;4958456;28;20471;-76
2023/06/08 05:35:52;;;;;;;4.27;3.87;;;20.30;99.90;;;;;;4952827;28;20462;-76
2023/06/08 05:38:19;;;;;;;3.43;3.13;;;20.40;99.90;;;;;;4953812;28;20831;-76
2023/06/08 05:40:46;;;;;;;4.33;4.00;;;20.60;99.90;;;;;;4954680;28;20587;-76
2023/06/08 05:43:13;;;;;;;4.63;3.57;;;20.60;99.90;;;;;;4947868;28;20472;-76
2023/06/08 05:45:41;;;;;;;3.53;3.33;;;20.30;99.90;;;;;;4955335;28;20478;-76
2023/06/08 05:48:08;;;;;;;6.40;3.53;;;20.60;99.90;;;;;;4953521;28;20488;-76
2023/06/08 05:50:35;;;;;;;4.80;3.80;;;20.60;99.90;;;;;;4951936;28;20579;-75
2023/06/08 05:53:02;;;;;;;3.27;3.07;;;20.90;99.90;;;;;;4937385;28;20476;-76
2023/06/08 05:55:29;;;;;;;3.93;3.20;;;21.00;99.90;;;;;;4956810;28;20469;-76
2023/06/08 05:57:55;;;;;;;5.87;4.23;;;20.60;99.90;;;;;;4950362;28;20490;-76
2023/06/08 06:00:22;;;;;;;5.00;4.47;;;20.50;99.90;;;;;;4954902;28;20475;-76
2023/06/08 06:02:50;;;;;;;6.40;4.40;;;21.00;99.90;;;;;;4937950;28;20823;-76
2023/06/08 06:05:17;;;;;;;4.90;3.30;;;21.00;99.90;;;;;;4962523;28;20479;-76
2023/06/08 06:07:44;;;;;;;7.10;4.83;;;21.30;99.90;;;;;;4951234;28;20822;-76
2023/06/08 06:10:11;;;;;;;4.57;4.23;;;21.40;99.90;;;;;;4958903;28;20474;-76
2023/06/08 06:12:38;;;;;;;5.80;4.47;;;21.80;99.90;;;;;;4938081;28;20472;-76
2023/06/08 06:15:05;;;;;;;4.93;4.43;;;22.10;99.90;;;;;;4943394;28;20473;-76
2023/06/08 06:17:32;;;;;;;3.70;3.40;;;22.10;99.90;;;;;;4942391;28;20486;-76
2023/06/08 06:20:00;;;;;;;4.70;4.17;;;22.30;99.90;;;;;;4957524;28;20472;-76
2023/06/08 06:22:27;;;;;;;4.90;4.40;;;22.70;99.90;;;;;;4950583;28;21023;-76
2023/06/08 06:24:54;;;;;;;4.30;4.00;;;22.70;99.90;;;;;;4948617;28;20485;-76
2023/06/08 06:27:20;;;;;;;3.90;3.50;;;22.90;99.90;;;;;;4952015;28;20460;-76
2023/06/08 06:29:48;;;;;;;3.43;3.13;;;22.90;99.90;;;;;;4933565;29;20490;-76
2023/06/08 06:32:15;;;;;;;4.30;4.00;;;22.90;99.90;;;;;;4944421;28;21018;-76
2023/06/08 06:34:43;;;;;;;4.10;3.70;;;23.20;99.90;;;;;;4947893;28;20479;-75
2023/06/08 06:37:11;;;;;;;5.67;4.60;;;23.50;99.90;;;;;;4964882;28;20984;-75
2023/06/08 06:39:38;;;;;;;3.27;3.07;;;23.60;99.90;;;;;;4954899;28;20478;-75
2023/06/08 06:42:05;;;;;;;3.43;3.23;;;23.50;99.90;;;;;;4959423;28;20503;-75
2023/06/08 06:44:32;;;;;;;4.07;3.73;;;23.30;99.90;;;;;;4953502;28;20978;-75
2023/06/08 06:46:58;;;;;;;3.13;3.00;;;23.40;99.90;;;;;;4960302;28;20483;-74
2023/06/08 06:49:25;;;;;;;4.33;2.90;;;24.00;99.90;;;;;;4948223;28;20870;-75
2023/06/08 06:51:52;;;;;;;3.97;3.67;;;24.40;99.90;;;;;;4962357;28;20489;-75
2023/06/08 06:54:21;;;;;;;5.30;4.90;;;24.80;99.90;;;;;;4948900;29;20488;-75
2023/06/08 06:56:47;;;;;;;3.37;3.17;;;24.90;99.90;;;;;;4952205;28;20471;-75
2023/06/08 06:59:15;;;;;;;2.93;2.83;;;25.00;99.90;;;;;;4956780;28;20468;-75
2023/06/08 07:01:41;;;;;;;3.97;3.67;;;25.00;99.90;;;;;;4954223;28;20533;-75
2023/06/08 07:04:09;;;;;;;3.97;3.70;;;24.80;99.90;;;;;;4951430;28;20473;-75
2023/06/08 07:06:36;;;;;;;3.50;3.20;;;24.70;99.90;;;;;;4945578;28;20500;-75
2023/06/08 07:09:04;;;;;;;3.67;3.47;;;23.90;99.90;;;;;;4946895;28;20559;-75
2023/06/08 07:11:32;;;;;;;4.47;4.10;;;23.50;99.90;;;;;;4946660;28;20861;-75
2023/06/08 07:13:58;;;;;;;3.43;3.23;;;24.00;99.90;;;;;;4946699;28;20474;-75
2023/06/08 07:16:25;;;;;;;4.37;4.10;;;24.50;99.90;;;;;;4950196;28;20474;-75
2023/06/08 07:18:52;;;;;;;3.20;3.00;;;24.50;99.90;;;;;;4939192;28;20812;-75
2023/06/08 07:21:20;;;;;;;3.27;3.13;;;24.90;99.90;;;;;;4960452;28;20495;-75
2023/06/08 07:23:49;;;;;;;4.20;3.90;;;25.40;99.90;;;;;;4937347;28;20507;-75
2023/06/08 07:26:16;;;;;;;4.23;3.97;;;25.60;99.90;;;;;;4957561;28;21041;-75
2023/06/08 07:28:46;;;;;;;5.23;3.73;;;25.80;99.90;;;;;;4950045;28;20487;-75
2023/06/08 07:31:12;;;;;;;4.07;3.87;;;25.80;99.90;;;;;;4958640;28;20498;-75
2023/06/08 07:33:39;;;;;;;4.10;3.90;;;25.90;99.90;;;;;;4959562;28;20464;-75
2023/06/08 07:36:06;;;;;;;2.83;2.73;;;26.00;99.90;;;;;;4953779;29;20477;-76
2023/06/08 07:38:33;;;;;;;3.37;3.27;;;26.10;99.90;;;;;;4950571;28;20829;-76
2023/06/08 07:41:00;;;;;;;4.30;3.50;;;25.60;99.90;;;;;;4943989;28;20867;-76
2023/06/08 07:43:27;;;;;;;4.20;3.90;;;25.30;99.90;;;;;;4961455;28;20475;-76
2023/06/08 07:45:55;;;;;;;4.17;3.87;;;25.50;99.90;;;;;;4952676;28;20469;-75
2023/06/08 07:48:22;;;;;;;4.37;3.87;;;25.70;99.90;;;;;;4946356;28;20956;-75
2023/06/08 07:50:49;;;;;;;4.30;4.00;;;25.90;99.90;;;;;;4949712;28;20993;-76
2023/06/08 07:53:15;;;;;;;3.80;3.60;;;26.20;99.90;;;;;;4960666;28;20474;-76
2023/06/08 07:55:42;;;;;;;4.03;3.83;;;26.40;99.90;;;;;;4960386;28;20520;-75
2023/06/08 07:58:09;;;;;;;4.57;4.23;;;26.40;99.90;;;;;;4961672;28;20480;-76
2023/06/08 08:00:36;;;;;;;4.77;4.47;;;26.30;99.90;;;;;;4950242;28;20594;-75
2023/06/08 08:03:04;;;;;;;4.87;4.57;;;26.00;99.90;;;;;;4949069;28;20473;-76
2023/06/08 08:05:31;;;;;;;5.00;4.60;;;26.10;99.90;;;;;;4967359;28;20475;-75
2023/06/08 08:07:58;;;;;;;4.00;3.77;;;26.20;99.90;;;;;;4960629;28;20530;-75
2023/06/08 08:10:25;;;;;;;3.47;3.20;;;26.10;99.90;;;;;;4946583;28;20492;-76
2023/06/08 08:12:52;;;;;;;6.03;5.57;;;26.20;99.90;;;;;;4952847;28;20475;-75
2023/06/08 08:15:21;;;;;;;3.60;3.40;;;26.20;99.90;;;;;;4960934;28;20474;-74
2023/06/08 08:17:48;;;;;;;4.27;4.07;;;26.40;99.90;;;;;;4943351;28;20868;-74
2023/06/08 08:20:17;;;;;;;4.40;4.10;;;26.20;99.90;;;;;;4958027;28;20466;-74
2023/06/08 08:22:44;;;;;;;4.17;3.87;;;26.50;99.90;;;;;;4957149;28;20571;-74
2023/06/08 08:25:11;;;;;;;3.60;3.40;;;26.00;99.90;;;;;;4952168;28;21136;-74
2023/06/08 08:27:38;;;;;;;4.70;3.47;;;25.60;99.90;;;;;;4956882;28;20469;-74
2023/06/08 08:30:06;;;;;;;4.27;4.07;;;24.90;99.90;;;;;;4949879;28;20480;-74
2023/06/08 08:32:32;;;;;;;4.67;4.33;;;24.90;99.90;;;;;;4935736;28;21015;-74
2023/06/08 08:34:59;;;;;;;3.83;3.53;;;24.80;99.90;;;;;;4947119;28;20479;-74
2023/06/08 08:37:27;;;;;;;4.63;4.23;;;25.10;99.90;;;;;;4942371;28;20476;-75
2023/06/08 08:39:54;;;;;;;4.33;3.97;;;25.50;99.90;;;;;;4956794;28;20464;-75
2023/06/08 08:42:25;;;;;;;3.73;3.53;;;25.50;99.90;;;;;;4946916;28;20497;-75
2023/06/08 08:44:55;;;;;;;3.10;2.90;;;25.80;99.90;;;;;;4956479;28;20475;-75
2023/06/08 08:47:23;;;;;;;3.23;2.93;;;25.90;99.90;;;;;;4942362;28;20476;-74
2023/06/08 08:49:58;;;;;;;3.37;3.27;;;25.80;99.90;;;;;;4957618;28;20618;-74
2023/06/08 08:52:29;;;;;;;3.23;3.03;;;26.00;99.90;;;;;;4947945;28;20503;-75
2023/06/08 08:54:57;;;;;;;3.47;2.70;;;25.90;99.90;;;;;;4950417;29;21016;-74
2023/06/08 08:57:27;;;;;;;2.77;2.67;;;25.70;99.90;;;;;;4949701;29;20499;-74
2023/06/08 08:59:55;;;;;;;3.10;2.80;;;25.80;99.90;;;;;;4952516;29;20480;-75
2023/06/08 09:02:22;;;;;;;2.83;2.63;;;26.00;99.90;;;;;;4958499;28;20495;-74
2023/06/08 09:04:48;;;;;;;2.77;2.67;;;26.00;99.90;;;;;;4954585;28;20842;-74
2023/06/08 09:07:19;;;;;;;3.10;2.97;;;26.30;99.90;;;;;;4948356;28;20469;-74
2023/06/08 09:10:15;;;;;;;2.60;2.60;;;26.10;99.90;;;;;;4942618;28;20481;-74
2023/06/08 09:12:43;;;;;;;3.80;2.90;;;25.90;99.90;;;;;;4952277;28;20488;-74
2023/06/08 09:15:12;;;;;;;3.70;3.40;;;25.80;99.90;;;;;;4957068;28;20456;-74
2023/06/08 09:17:40;;;;;;;4.50;4.20;;;25.80;99.90;;;;;;4972501;28;20912;-74
2023/06/08 09:20:09;;;;;;;6.00;3.67;;;25.60;99.90;;;;;;4956574;28;20476;-74
2023/06/08 09:22:37;;;;;;;3.57;3.27;;;25.30;99.90;;;;;;4952485;29;20986;-74
2023/06/08 09:25:04;;;;;;;3.30;3.00;;;25.30;99.90;;;;;;4955783;28;20845;-74
2023/06/08 09:27:33;;;;;;;2.70;2.60;;;25.30;99.90;;;;;;4946686;29;20482;-74
2023/06/08 09:30:00;;;;;;;4.50;4.07;;;25.50;99.90;;;;;;4947630;28;20472;-75
2023/06/08 09:32:35;;;;;;;3.50;3.30;;;25.60;99.90;;;;;;4933730;29;20536;-75
2023/06/08 09:35:03;;;;;;;3.60;3.30;;;25.20;99.90;;;;;;4951940;28;20474;-75
2023/06/08 09:37:30;;;;;;;4.00;3.80;;;25.00;99.90;;;;;;4959208;28;20509;-74
2023/06/08 09:39:58;;;;;;;4.30;3.83;;;24.80;99.90;;;;;;4956262;28;20473;-75
2023/06/08 09:42:42;;;;;;;7.80;4.73;;;24.80;99.90;;;;;;4948766;28;20494;-74
2023/06/08 09:45:12;;;;;;;4.80;3.73;;;24.50;99.90;;;;;;4960250;28;20467;-74
2023/06/08 09:47:39;;;;;;;3.20;3.00;;;24.30;99.90;;;;;;4953774;28;20580;-74
2023/06/08 09:50:08;;;;;;;4.33;3.93;;;24.30;99.90;;;;;;4968698;28;20908;-75
2023/06/08 09:52:37;;;;;;;3.07;2.87;;;24.50;99.90;;;;;;4931628;29;20491;-75
2023/06/08 09:55:05;;;;;;;2.30;2.10;;;24.70;99.90;;;;;;4944376;28;20483;-74
2023/06/08 09:57:35;;;;;;;3.80;3.00;;;24.80;99.90;;;;;;4946186;28;20988;-74
2023/06/08 10:00:14;;;;;;;2.83;2.83;;;24.80;99.90;;;;;;4949127;28;20868;-75
2023/06/08 10:02:48;;;;;;;3.43;2.97;;;24.70;99.90;;;;;;4940711;29;20654;-74
2023/06/08 10:05:17;;;;;;;4.10;3.70;;;24.80;99.90;;;;;;4950547;28;20462;-74
2023/06/08 10:07:48;;;;;;;3.27;3.17;;;24.90;99.90;;;;;;4951678;28;20475;-74
2023/06/08 10:10:19;;;;;;;4.93;3.67;;;25.00;99.90;;;;;;4958894;28;20480;-74
2023/06/08 10:12:46;;;;;;;3.77;3.50;;;25.00;99.90;;;;;;4949437;28;20469;-74
2023/06/08 10:15:15;;;;;;;7.63;3.00;;;25.30;99.90;;;;;;4941658;28;20471;-74
2023/06/08 10:17:43;;;;;;;3.17;3.07;;;25.40;99.90;;;;;;4946997;28;20467;-75
2023/06/08 10:20:12;;;;;;;2.40;2.30;;;25.30;99.90;;;;;;4969348;23;20476;-72
2023/06/08 10:22:40;;;;;;;3.97;3.63;;;25.30;99.90;;;;;;4984342;28;20489;-73
2023/06/08 10:25:11;;;;;;;2.90;2.80;;;25.30;99.90;;;;;;4988730;28;20472;-72
2023/06/08 10:27:37;;;;;;;2.73;2.63;;;25.40;99.90;;;;;;4986479;28;20472;-72
2023/06/08 10:30:07;;;;;;;3.13;3.03;;;25.50;99.90;;;;;;4987244;28;20473;-73
2023/06/08 10:32:36;;;;;;;3.10;3.00;;;25.70;99.90;;;;;;4972503;28;20475;-73
2023/06/08 10:35:05;;;;;;;2.90;2.70;;;25.90;99.90;;;;;;4972754;28;20561;-72
2023/06/08 10:37:33;;;;;;;2.93;2.73;;;25.70;99.90;;;;;;4966549;28;20509;-72
2023/06/08 10:40:02;;;;;;;2.87;2.77;;;25.90;99.90;;;;;;4969302;28;20504;-72
2023/06/08 10:42:34;;;;;;;2.13;2.00;;;26.00;99.90;;;;;;4968951;28;20491;-72
2023/06/08 10:45:01;;;;;;;4.83;3.20;;;25.90;99.90;;;;;;4969199;28;21084;-72
2023/06/08 10:47:31;;;;;;;3.53;3.23;;;25.70;99.90;;;;;;4965215;28;20843;-72
2023/06/08 10:50:01;;;;;;;3.10;3.00;;;25.60;99.90;;;;;;4977975;28;20477;-72
2023/06/08 10:52:29;;;;;;;2.77;2.67;;;25.60;99.90;;;;;;4962659;28;20564;-71
2023/06/08 10:54:59;;;;;;;2.97;2.87;;;25.50;99.90;;;;;;4970650;28;20470;-72
2023/06/08 10:57:37;;;;;;;4.00;3.90;;;25.60;99.90;;;;;;4969280;28;20552;-71
2023/06/08 11:00:43;;;;;;;4.40;4.00;;;25.50;99.90;;;;;;4973637;28;20584;-72
2023/06/08 11:03:16;;;;;;;2.93;2.83;;;25.60;99.90;;;;;;4976616;28;20804;-71
2023/06/08 11:05:48;;;;;;;3.30;3.17;;;25.60;99.90;;;;;;4974866;28;20501;-71
2023/06/08 11:08:15;;;;;;;3.23;3.00;;;25.60;99.90;;;;;;4979367;28;20464;-72
2023/06/08 11:10:42;;;;;;;2.87;2.67;;;25.70;99.80;;;;;;4974058;28;20490;-72
2023/06/08 11:13:11;;;;;;;3.20;3.07;;;25.90;99.90;;;;;;4972684;28;20585;-72
2023/06/08 11:15:39;;;;;;;4.03;3.10;;;25.90;99.40;;;;;;4975110;28;20493;-72
2023/06/08 11:18:08;;;;;;;3.97;3.70;;;25.90;99.40;;;;;;4976483;28;20467;-72
2023/06/08 11:20:35;;;;;;;2.60;2.50;;;26.00;99.10;;;;;;4977908;28;20497;-72
2023/06/08 11:23:06;;;;;;;3.67;3.43;;;26.10;98.80;;;;;;4972972;28;20525;-72
2023/06/08 11:25:32;;;;;;;2.40;2.30;;;26.30;98.70;;;;;;4976995;28;20493;-72
2023/06/08 11:28:00;;;;;;;3.70;3.60;;;26.40;98.90;;;;;;4976490;28;20836;-73
2023/06/08 11:30:28;;;;;;;2.80;2.53;;;26.40;98.30;;;;;;4982472;28;20487;-73
2023/06/08 11:32:56;;;;;;;2.90;2.77;;;26.40;98.70;;;;;;4975863;28;20843;-73
2023/06/08 11:35:23;;;;;;;3.57;2.70;;;26.60;98.40;;;;;;4974696;28;20461;-73
2023/06/08 11:37:51;;;;;;;3.93;3.73;;;26.60;97.70;;;;;;4976029;28;20468;-72
2023/06/08 11:40:19;;;;;;;3.40;3.30;;;26.60;97.50;;;;;;4973468;28;20499;-73
2023/06/08 11:42:46;;;;;;;3.33;3.30;;;26.70;97.40;;;;;;4975725;28;20529;-72
2023/06/08 11:45:14;;;;;;;3.03;2.83;;;26.60;97.50;;;;;;4977113;28;20474;-72
2023/06/08 11:47:41;;;;;;;2.90;2.80;;;26.50;96.70;;;;;;4977555;28;20490;-73
2023/06/08 11:50:09;;;;;;;4.60;2.93;;;26.70;97.20;;;;;;4975773;28;20947;-73
2023/06/08 11:52:39;;;;;;;2.77;2.67;;;26.80;96.90;;;;;;4975727;28;20528;-72
2023/06/08 11:55:11;;;;;;;2.73;2.60;;;26.70;96.60;;;;;;4969486;28;20818;-72
2023/06/08 11:57:41;;;;;;;2.83;2.63;;;26.60;95.90;;;;;;4974352;28;20473;-73
2023/06/08 12:00:12;;;;;;;2.97;2.77;;;26.80;96.10;;;;;;4970483;28;20476;-73
2023/06/08 12:02:39;;;;;;;2.60;2.50;;;26.80;95.10;;;;;;4983569;28;20476;-72
2023/06/08 12:05:07;;;;;;;2.87;2.77;;;26.80;95.60;;;;;;4975506;28;20954;-73
2023/06/08 12:07:35;;;;;;;3.93;3.37;;;26.90;95.90;;;;;;4971760;28;20478;-73
2023/06/08 12:10:02;;;;;;;2.67;2.47;;;27.00;95.70;;;;;;4979407;28;20561;-73
2023/06/08 12:12:30;;;;;;;2.40;2.30;;;27.10;95.90;;;;;;4972501;28;20477;-72
2023/06/08 12:14:58;;;;;;;2.53;2.43;;;27.20;95.50;;;;;;4978904;28;20499;-73
2023/06/08 12:17:26;;;;;;;3.27;3.07;;;27.40;94.70;;;;;;4976083;28;20478;-73
2023/06/08 12:19:54;;;;;;;3.40;3.30;;;27.40;94.90;;;;;;4973308;28;20490;-73
2023/06/08 12:22:21;;;;;;;3.70;3.07;;;27.50;94.50;;;;;;4973302;28;20506;-73
2023/06/08 12:24:48;;;;;;;2.90;2.87;;;27.80;94.70;;;;;;4975453;28;20944;-73
2023/06/08 12:27:16;;;;;;;2.83;2.73;;;27.90;93.90;;;;;;4970192;28;20465;-73
2023/06/08 12:29:42;;;;;;;3.27;2.53;;;27.60;94.60;;;;;;4968101;28;20532;-73
2023/06/08 12:32:11;;;;;;;2.90;2.77;;;27.60;94.60;;;;;;4975511;28;20589;-73
2023/06/08 12:34:37;;;;;;;4.00;3.70;;;27.60;94.10;;;;;;4974473;28;20475;-73
2023/06/08 12:37:05;;;;;;;2.80;2.63;;;27.60;93.60;;;;;;4975056;28;20960;-73
2023/06/08 12:39:32;;;;;;;3.47;3.27;;;27.60;93.10;;;;;;4972057;28;20580;-74
2023/06/08 12:41:59;;;;;;;2.37;2.33;;;27.60;93.20;;;;;;4972076;28;20497;-74
2023/06/08 12:44:26;;;;;;;2.70;2.60;;;27.50;93.40;;;;;;4977729;28;20583;-73
2023/06/08 12:46:53;;;;;;;3.37;3.10;;;27.50;93.20;;;;;;4972981;28;20491;-74
2023/06/08 12:49:22;;;;;;;3.53;3.27;;;27.50;93.40;;;;;;4977415;28;20977;-71
2023/06/08 12:51:49;;;;;;;4.43;3.50;;;27.50;93.90;;;;;;4970688;28;20496;-73
2023/06/08 12:54:16;;;;;;;3.40;2.93;;;27.60;93.70;;;;;;4975044;28;20474;-73
2023/06/08 12:56:44;;;;;;;2.60;2.50;;;27.70;93.50;;;;;;4968715;28;20475;-73
2023/06/08 12:59:11;;;;;;;3.40;3.30;;;27.80;93.60;;;;;;4979155;28;20894;-73
2023/06/08 13:01:38;;;;;;;2.87;2.77;;;27.80;93.30;;;;;;4976215;28;20810;-72
2023/06/08 13:04:05;;;;;;;3.93;3.67;;;27.80;92.80;;;;;;4977409;28;20487;-72
2023/06/08 13:06:33;;;;;;;3.20;2.97;;;27.80;92.50;;;;;;4968631;28;20555;-72
2023/06/08 13:08:59;;;;;;;2.90;2.80;;;27.60;92.60;;;;;;4975260;28;20468;-73
2023/06/08 13:11:26;;;;;;;3.00;2.77;;;27.70;93.30;;;;;;4971317;28;20487;-72
2023/06/08 13:13:53;;;;;;;3.20;3.10;;;27.70;93.00;;;;;;4973377;28;20556;-72
2023/06/08 13:16:20;;;;;;;2.27;2.17;;;27.70;92.90;;;;;;4973481;28;20544;-73
2023/06/08 13:18:46;;;;;;;3.07;2.97;;;27.80;92.30;;;;;;4974727;28;20519;-72
2023/06/08 13:21:14;;;;;;;7.50;2.83;;;27.90;91.90;;;;;;4974199;28;20854;-73
2023/06/08 13:23:42;;;;;;;3.60;3.30;;;28.00;91.40;;;;;;4968384;28;20473;-70
2023/06/08 13:26:09;;;;;;;2.77;2.77;;;28.00;91.20;;;;;;4967955;28;20516;-72
2023/06/08 13:28:35;;;;;;;2.90;2.80;;;28.00;91.30;;;;;;4975615;28;20484;-72
2023/06/08 13:31:02;;;;;;;3.13;3.03;;;28.10;91.00;;;;;;4977633;28;20488;-72
2023/06/08 13:33:29;;;;;;;2.63;2.60;;;27.90;90.00;;;;;;4975876;28;20465;-72
2023/06/08 13:35:56;;;;;;;3.00;2.80;;;27.90;90.80;;;;;;4978781;28;20468;-72
2023/06/08 13:38:23;;;;;;;5.40;4.03;;;27.90;90.30;;;;;;4979854;28;20552;-72
2023/06/08 13:40:51;;;;;;;3.10;3.00;;;27.90;90.50;;;;;;4971376;28;20504;-72
2023/06/08 13:43:18;;;;;;;2.50;2.47;;;27.90;90.50;;;;;;4976150;28;20476;-73
2023/06/08 13:45:45;;;;;;;3.10;3.00;;;27.90;90.50;;;;;;4970858;28;20907;-72
2023/06/08 13:48:12;;;;;;;2.93;2.83;;;27.90;91.00;;;;;;4977143;28;20481;-72
2023/06/08 13:50:39;;;;;;;3.43;3.33;;;27.80;90.30;;;;;;4975289;28;20488;-73
2023/06/08 13:53:06;;;;;;;3.07;2.97;;;27.90;89.80;;;;;;4968635;28;20475;-73
2023/06/08 13:55:32;;;;;;;2.97;2.87;;;28.00;90.70;;;;;;4974673;28;20959;-72
2023/06/08 13:58:01;;;;;;;2.73;2.63;;;28.00;90.50;;;;;;4975656;28;20476;-73
2023/06/08 14:00:29;;;;;;;3.40;3.30;;;28.10;90.20;;;;;;4966332;28;20489;-72
2023/06/08 14:02:55;;;;;;;3.00;2.67;;;28.00;89.90;;;;;;4977512;28;20472;-72
2023/06/08 14:05:22;;;;;;;2.80;2.70;;;28.10;90.10;;;;;;4975483;28;20492;-73
2023/06/08 14:07:49;;;;;;;2.77;2.67;;;28.00;90.00;;;;;;4973312;28;20469;-73
2023/06/08 14:10:17;;;;;;;3.37;3.17;;;28.00;90.10;;;;;;4973185;28;20463;-72
2023/06/08 14:12:43;;;;;;;3.23;3.13;;;28.10;90.30;;;;;;4973795;28;20550;-72
2023/06/08 14:15:12;;;;;;;3.43;3.33;;;28.20;90.30;;;;;;4976718;28;20469;-74
2023/06/08 14:17:39;;;;;;;3.00;2.97;;;28.30;89.40;;;;;;4975103;28;20538;-74
2023/06/08 14:20:07;;;;;;;2.67;2.50;;;28.20;87.30;;;;;;4985557;28;20489;-74
2023/06/08 14:22:34;;;;;;;3.50;3.20;;;28.20;87.70;;;;;;4976001;28;20468;-72
2023/06/08 14:25:01;;;;;;;2.97;2.87;;;28.10;87.60;;;;;;4973413;28;20476;-72
2023/06/08 14:27:28;;;;;;;3.83;3.53;;;28.20;87.50;;;;;;4963441;28;20474;-73
2023/06/08 14:29:54;;;;;;;2.93;2.80;;;28.30;87.20;;;;;;4969048;28;20497;-72
2023/06/08 14:32:22;;;;;;;4.00;3.80;;;28.40;87.50;;;;;;4971807;28;20529;-74
2023/06/08 14:34:50;;;;;;;2.93;2.83;;;28.20;88.50;;;;;;4977677;28;20556;-73
2023/06/08 14:37:17;;;;;;;2.60;2.60;;;28.20;86.70;;;;;;4977730;28;20467;-72
2023/06/08 14:39:44;;;;;;;2.97;2.87;;;28.20;86.60;;;;;;4975268;28;20492;-72
2023/06/08 14:42:10;;;;;;;3.03;2.93;;;28.40;85.40;;;;;;4979950;28;20582;-72
2023/06/08 14:44:37;;;;;;;3.13;2.93;;;28.50;85.00;;;;;;4979833;28;20938;-74
2023/06/08 14:47:04;;;;;;;3.17;3.07;;;28.50;85.10;;;;;;4972570;28;20491;-73
2023/06/08 14:49:36;;;;;;;3.10;2.90;;;28.80;85.40;;;;;;4975700;28;20793;-72
2023/06/08 14:52:04;;;;;;;4.23;2.37;;;28.80;84.50;;;;;;4976688;28;20486;-72
2023/06/08 14:54:31;;;;;;;2.87;2.80;;;28.80;83.90;;;;;;4971789;28;20466;-72
2023/06/08 14:56:57;;;;;;;3.30;3.10;;;28.60;83.40;;;;;;4983544;28;20465;-72
2023/06/08 14:59:24;;;;;;;3.07;2.97;;;28.70;82.70;;;;;;4978377;28;20491;-74
2023/06/08 15:01:51;;;;;;;3.70;3.40;;;28.90;83.80;;;;;;4974023;28;20825;-72
2023/06/08 15:04:18;;;;;;;3.90;3.70;;;28.90;83.20;;;;;;4973813;28;20479;-73
2023/06/08 15:06:46;;;;;;;3.63;3.40;;;29.00;83.40;;;;;;4974640;28;20461;-73
2023/06/08 15:09:13;;;;;;;3.10;3.00;;;29.10;82.50;;;;;;4975957;28;20472;-72
2023/06/08 15:11:39;;;;;;;3.13;2.93;;;29.10;82.60;;;;;;4973144;28;20516;-72
2023/06/08 15:14:06;;;;;;;3.40;3.30;;;29.10;83.50;;;;;;4972932;28;20478;-71
2023/06/08 15:16:33;;;;;;;2.90;2.80;;;29.10;82.70;;;;;;4976985;28;20497;-72
2023/06/08 15:18:59;;;;;;;3.00;2.90;;;29.00;81.90;;;;;;4974195;28;20469;-73
2023/06/08 15:21:26;;;;;;;3.20;3.10;;;29.10;81.70;;;;;;4974208;28;20502;-74
2023/06/08 15:23:54;;;;;;;2.97;2.87;;;28.90;81.90;;;;;;4972293;28;20482;-72
2023/06/08 15:26:22;;;;;;;3.30;3.20;;;28.90;81.80;;;;;;4971779;28;20475;-72
2023/06/08 15:28:48;;;;;;;3.40;3.30;;;29.00;83.10;;;;;;4978855;28;20878;-72
2023/06/08 15:31:15;;;;;;;3.13;3.03;;;29.10;83.00;;;;;;4975876;28;20487;-73
2023/06/08 15:33:42;;;;;;;3.73;3.63;;;29.30;82.90;;;;;;4973866;28;20468;-73
2023/06/08 15:36:09;;;;;;;3.17;3.07;;;29.30;82.30;;;;;;4976677;28;20470;-73
2023/06/08 15:38:36;;;;;;;3.80;3.60;;;29.40;81.70;;;;;;4974434;28;20505;-73
2023/06/08 15:41:04;;;;;;;3.70;3.50;;;29.20;82.00;;;;;;4972700;28;20503;-73
2023/06/08 15:43:31;;;;;;;3.17;3.07;;;29.20;82.00;;;;;;4977785;28;20470;-72
2023/06/08 15:45:58;;;;;;;3.80;3.60;;;29.10;82.10;;;;;;4978050;28;20479;-72
2023/06/08 15:48:24;;;;;;;4.47;4.27;;;29.20;82.70;;;;;;4981438;28;20569;-72
2023/06/08 15:50:51;;;;;;;3.07;2.90;;;29.20;81.90;;;;;;4975041;28;20510;-72
2023/06/08 15:53:18;;;;;;;3.30;3.10;;;29.20;81.10;;;;;;4973055;28;20966;-72
2023/06/08 15:55:45;;;;;;;3.03;2.83;;;29.40;82.00;;;;;;4977221;28;20476;-72
2023/06/08 15:58:13;;;;;;;3.40;3.30;;;29.10;81.50;;;;;;4972526;28;20515;-72
2023/06/08 16:00:40;;;;;;;3.10;3.00;;;29.00;83.00;;;;;;4972626;28;20501;-72
2023/06/08 16:03:07;;;;;;;3.70;3.50;;;29.00;84.00;;;;;;4978849;28;20479;-72
2023/06/08 16:05:34;;;;;;;4.13;3.83;;;28.90;83.20;;;;;;4982542;28;20496;-72
2023/06/08 16:08:00;;;;;;;3.00;2.90;;;28.90;84.40;;;;;;4976804;28;20538;-72
2023/06/08 16:10:27;;;;;;;4.37;4.17;;;28.90;84.10;;;;;;4966277;28;20520;-71
2023/06/08 16:12:54;;;;;;;3.37;3.27;;;28.90;83.70;;;;;;4971833;28;20467;-72
2023/06/08 16:15:23;;;;;;;3.37;3.27;;;28.80;83.80;;;;;;4974370;28;20462;-72
2023/06/08 16:17:50;;;;;;;3.70;3.53;;;28.80;84.30;;;;;;4972696;28;20475;-72
2023/06/08 16:20:17;;;;;;;2.90;2.80;;;28.90;84.40;;;;;;4973951;28;20502;-72
2023/06/08 16:22:43;;;;;;;2.60;2.60;;;28.90;83.40;;;;;;5006766;23;20501;-72
2023/06/08 16:25:10;;;;;;;5.80;2.97;;;28.90;83.10;;;;;;4986540;28;20474;-72
2023/06/08 16:27:37;;;;;;;5.50;5.20;;;28.70;84.00;;;;;;4990932;28;20493;-73
2023/06/08 16:30:05;;;;;;;3.37;3.27;;;28.60;83.80;;;;;;4987962;28;20566;-67
2023/06/08 16:32:33;;;;;;;2.93;2.73;;;28.50;83.80;;;;;;4990198;28;20955;-74
2023/06/08 16:35:00;;;;;;;3.63;3.43;;;28.20;83.90;;;;;;4989985;28;20775;-74
2023/06/08 16:37:26;;;;;;;2.77;2.67;;;28.00;84.20;;;;;;4984005;28;20472;-73
2023/06/08 16:39:53;;;;;;;3.40;3.20;;;27.80;85.20;;;;;;4992746;28;20984;-74
2023/06/08 16:42:20;;;;;;;2.60;2.50;;;27.70;86.00;;;;;;4991730;28;20482;-72
2023/06/08 16:44:47;;;;;;;3.40;3.10;;;27.40;84.10;;;;;;4985100;28;20477;-74
2023/06/08 16:47:13;;;;;;;2.50;2.40;;;27.30;84.80;;;;;;4992626;28;20458;-74
2023/06/08 16:49:41;;;;;;;2.87;2.67;;;27.30;84.90;;;;;;4991996;28;20490;-74
2023/06/08 16:52:09;;;;;;;4.73;4.43;;;27.30;85.10;;;;;;4991539;28;20494;-73